Loran, Illinois
Current Conditions -  °F | °C
As of 2:15 AM on Thursday 27 Nov 2014 (Local Time) from KFEP Reporting Station
Overcast Overcast  
Wind Chill: 12°   Ceiling: 5000
Heat Index: 22°   Visibility: 7mi
Dew Point: 18°   Wind: 8mph
Humidity: 87%   Direction: 310°NW
Pressure: 30.28"   Gusts: NA
Location:  42.2523°N, 89.8438°W
Report Text: KFEP 270815Z AUTO 31007KT 7SM OVC050 M06/M08 A3028 RMK AO2 T10571076
Loading
Personal Weather Stations






























Interactive Weather Map New forecast layout! Learn more

10-Day Weather Forecast

Advertisements
Track Severe Weather on mobile